Time;durP1;ratioP1;P1;durP2;ratioP2;P2;SDS_P1;SDS_P2;PMS_P1;PMS_P2;Temp;Humidity;BMP_temperature;BMP_pressure;BME280_temperature;BME280_humidity;BME280_pressure;Samples;Min_cycle;Max_cycle;Signal;HPM_P1;HPM_P2
2021/07/05 00:00:54;;;;;;;5.77;5.17;;;18.20;99.90;;;;;;5052013;28;20631;-73
2021/07/05 00:03:20;;;;;;;5.67;5.10;;;18.20;99.90;;;;;;5052279;28;20199;-73
2021/07/05 00:05:46;;;;;;;6.23;4.83;;;18.20;99.90;;;;;;5052317;28;20204;-73
2021/07/05 00:08:11;;;;;;;7.40;5.63;;;18.20;99.90;;;;;;5052442;28;20180;-73
2021/07/05 00:10:37;;;;;;;5.77;5.23;;;18.20;99.90;;;;;;5052139;28;20735;-73
2021/07/05 00:13:03;;;;;;;5.90;5.37;;;18.20;99.90;;;;;;5051889;28;20169;-73
2021/07/05 00:15:33;;;;;;;5.93;4.90;;;18.20;99.90;;;;;;5052752;28;20653;-72
2021/07/05 00:18:03;;;;;;;5.50;5.00;;;18.20;99.90;;;;;;5052817;28;20189;-73
2021/07/05 00:20:33;;;;;;;5.63;5.07;;;18.20;99.90;;;;;;5051253;28;20694;-73
2021/07/05 00:22:59;;;;;;;6.60;5.43;;;18.20;99.90;;;;;;5051848;28;20318;-73
2021/07/05 00:25:25;;;;;;;5.80;5.30;;;18.20;99.90;;;;;;5052039;28;20201;-73
2021/07/05 00:27:51;;;;;;;7.00;5.67;;;18.20;99.90;;;;;;5051841;28;20268;-73
2021/07/05 00:30:18;;;;;;;7.80;5.97;;;18.20;99.90;;;;;;5051343;28;20281;-72
2021/07/05 00:32:45;;;;;;;8.27;7.17;;;18.20;99.90;;;;;;5050262;28;20180;-73
2021/07/05 00:35:11;;;;;;;6.50;5.73;;;18.20;99.90;;;;;;5034069;28;20468;-73
2021/07/05 00:37:37;;;;;;;6.13;5.50;;;18.20;99.90;;;;;;5051530;28;20166;-74
2021/07/05 00:40:04;;;;;;;6.73;5.97;;;18.20;99.90;;;;;;5051803;28;20869;-73
2021/07/05 00:42:30;;;;;;;6.17;5.57;;;18.20;99.90;;;;;;5050380;28;20177;-73
2021/07/05 00:44:56;;;;;;;8.80;5.90;;;18.20;99.90;;;;;;5051435;28;20182;-73
2021/07/05 00:47:21;;;;;;;6.57;5.97;;;18.10;99.90;;;;;;5051268;28;20182;-73
2021/07/05 00:49:47;;;;;;;7.10;6.30;;;18.10;99.90;;;;;;5051257;28;20205;-73
2021/07/05 00:52:13;;;;;;;7.80;6.57;;;18.10;99.90;;;;;;5050522;28;20568;-73
2021/07/05 00:54:39;;;;;;;9.87;6.80;;;18.10;99.90;;;;;;5051148;28;20174;-73
2021/07/05 00:57:19;;;;;;;6.87;6.23;;;18.10;99.90;;;;;;5050946;28;20168;-72
2021/07/05 00:59:46;;;;;;;10.40;6.93;;;18.10;99.90;;;;;;5051524;28;20197;-72
2021/07/05 01:02:11;;;;;;;9.70;6.90;;;18.10;99.90;;;;;;5050337;28;20558;-73
2021/07/05 01:04:37;;;;;;;8.67;6.57;;;18.10;99.90;;;;;;5050809;28;20173;-73
2021/07/05 01:07:03;;;;;;;7.83;6.80;;;18.10;99.90;;;;;;5050893;28;20235;-73
2021/07/05 01:09:28;;;;;;;8.20;6.60;;;18.10;99.90;;;;;;5050395;28;20281;-73
2021/07/05 01:11:53;;;;;;;7.30;6.47;;;18.00;99.90;;;;;;5050099;28;20177;-73
2021/07/05 01:14:19;;;;;;;7.60;6.73;;;18.00;99.90;;;;;;5032850;28;20555;-73
2021/07/05 01:16:44;;;;;;;7.57;6.80;;;18.00;99.90;;;;;;5050815;28;20257;-73
2021/07/05 01:19:10;;;;;;;8.30;6.43;;;18.00;99.90;;;;;;5050693;28;20199;-73
2021/07/05 01:21:36;;;;;;;7.77;6.97;;;17.90;99.90;;;;;;5078703;22;20255;-71
2021/07/05 01:24:01;;;;;;;8.70;7.43;;;17.90;99.90;;;;;;5070259;28;20226;-71
2021/07/05 01:39:55;;;;;;;12.43;8.10;;;17.80;99.90;;;;;;5069985;28;20569;-72
2021/07/05 01:42:21;;;;;;;9.17;8.17;;;17.90;99.90;;;;;;5073625;28;20169;-72
2021/07/05 01:44:47;;;;;;;10.23;9.13;;;17.80;99.90;;;;;;5074508;28;20663;-71
2021/07/05 01:47:13;;;;;;;9.57;8.30;;;17.80;99.90;;;;;;5074495;28;20180;-71
2021/07/05 01:49:41;;;;;;;10.57;8.10;;;17.80;99.90;;;;;;5074435;28;20287;-71
2021/07/05 01:52:07;;;;;;;9.93;8.67;;;17.80;99.90;;;;;;5072135;28;20185;-71
2021/07/05 01:54:32;;;;;;;10.77;8.37;;;17.80;99.90;;;;;;5074773;28;20180;-71
2021/07/05 01:56:58;;;;;;;12.07;9.37;;;17.80;99.90;;;;;;5074463;28;20662;-71
2021/07/05 01:59:24;;;;;;;13.17;9.50;;;17.80;99.90;;;;;;5074528;28;20219;-72
2021/07/05 02:01:49;;;;;;;11.03;8.90;;;17.80;99.90;;;;;;5074135;28;20192;-71
2021/07/05 02:04:15;;;;;;;13.63;9.97;;;17.90;99.90;;;;;;5057365;28;20637;-71
2021/07/05 02:06:40;;;;;;;11.30;9.97;;;17.90;99.90;;;;;;5080171;28;20195;-71
2021/07/05 02:09:07;;;;;;;11.60;10.40;;;17.90;99.90;;;;;;5075200;28;20202;-71
2021/07/05 02:11:34;;;;;;;12.87;10.40;;;17.80;99.90;;;;;;5074489;28;20658;-71
2021/07/05 02:14:00;;;;;;;12.17;10.70;;;17.90;99.90;;;;;;5075315;28;20613;-71
2021/07/05 02:16:26;;;;;;;14.53;11.40;;;17.90;99.90;;;;;;5057591;28;20176;-71
2021/07/05 02:18:51;;;;;;;14.60;12.30;;;17.90;99.90;;;;;;5056779;28;20181;-72
2021/07/05 02:21:17;;;;;;;12.93;11.17;;;17.90;99.90;;;;;;5073414;28;20204;-72
2021/07/05 02:23:42;;;;;;;18.13;11.67;;;17.90;99.90;;;;;;5074196;28;20179;-71
2021/07/05 02:26:09;;;;;;;14.53;12.37;;;17.80;99.90;;;;;;5074041;28;20209;-71
2021/07/05 02:28:36;;;;;;;14.87;12.43;;;17.80;99.90;;;;;;5073693;28;20175;-71
2021/07/05 02:31:04;;;;;;;13.03;11.67;;;17.80;99.90;;;;;;5073057;28;20258;-71
2021/07/05 02:33:31;;;;;;;14.33;11.50;;;17.80;99.90;;;;;;5074206;28;20161;-71
2021/07/05 02:36:03;;;;;;;16.60;13.13;;;17.80;99.90;;;;;;5073742;28;20198;-71
2021/07/05 02:38:28;;;;;;;16.67;13.57;;;17.80;99.90;;;;;;5073327;28;20173;-71
2021/07/05 02:40:56;;;;;;;16.27;12.97;;;17.80;99.90;;;;;;5072488;28;20193;-71
2021/07/05 02:43:22;;;;;;;16.37;12.90;;;17.80;99.90;;;;;;5073687;28;20173;-71
2021/07/05 02:45:50;;;;;;;14.70;13.20;;;17.80;99.90;;;;;;5073266;28;20260;-71
2021/07/05 02:48:21;;;;;;;15.80;12.13;;;17.90;99.90;;;;;;5073532;28;20212;-71
2021/07/05 02:50:51;;;;;;;14.30;12.13;;;17.90;99.90;;;;;;5054857;28;20280;-71
2021/07/05 02:53:17;;;;;;;16.47;14.63;;;17.80;99.90;;;;;;5073648;28;20173;-71
2021/07/05 02:55:43;;;;;;;20.63;13.83;;;17.80;99.90;;;;;;5073760;28;20173;-71
2021/07/05 02:58:08;;;;;;;15.77;12.73;;;17.80;99.90;;;;;;5073498;28;20177;-71
2021/07/05 03:00:38;;;;;;;15.97;13.17;;;17.80;99.90;;;;;;5072241;28;20196;-71
2021/07/05 03:03:04;;;;;;;14.50;12.30;;;17.80;99.90;;;;;;5073360;28;20169;-72
2021/07/05 03:05:30;;;;;;;14.70;12.40;;;17.80;99.90;;;;;;5073663;28;20201;-71
2021/07/05 03:07:56;;;;;;;17.57;13.33;;;17.80;99.90;;;;;;5073237;28;20169;-71
2021/07/05 03:10:34;;;;;;;15.03;12.53;;;17.80;99.90;;;;;;5072255;28;20193;-71
2021/07/05 03:13:05;;;;;;;16.13;11.60;;;17.80;99.90;;;;;;5073552;28;20180;-71
2021/07/05 03:15:31;;;;;;;15.07;12.50;;;17.80;99.90;;;;;;5072905;28;20180;-71
2021/07/05 03:17:57;;;;;;;19.10;12.77;;;17.80;99.90;;;;;;5073899;28;20544;-72
2021/07/05 03:20:26;;;;;;;16.97;13.30;;;17.90;99.90;;;;;;5073018;28;20204;-72
2021/07/05 03:22:53;;;;;;;19.70;13.87;;;17.90;99.90;;;;;;5073322;28;20227;-71
2021/07/05 03:25:21;;;;;;;16.20;12.40;;;17.90;99.90;;;;;;5072519;28;20169;-71
2021/07/05 03:27:47;;;;;;;17.60;13.80;;;17.90;99.90;;;;;;5072462;28;20255;-71
2021/07/05 03:30:14;;;;;;;13.47;12.07;;;18.00;99.90;;;;;;5072292;28;20212;-72
2021/07/05 03:32:40;;;;;;;16.77;11.87;;;18.00;99.90;;;;;;5071611;28;20173;-72
2021/07/05 03:35:08;;;;;;;14.53;12.20;;;18.00;99.90;;;;;;5072270;28;20173;-71
2021/07/05 03:37:33;;;;;;;15.13;12.17;;;18.10;99.90;;;;;;5072440;28;20165;-71
2021/07/05 03:39:59;;;;;;;16.43;12.40;;;18.10;99.90;;;;;;5072239;28;20258;-72
2021/07/05 03:42:25;;;;;;;15.07;11.90;;;18.40;99.90;;;;;;5071962;28;20558;-71
2021/07/05 03:44:50;;;;;;;12.13;10.83;;;19.00;99.90;;;;;;5068063;28;21017;-71
2021/07/05 03:47:16;;;;;;;14.87;11.57;;;19.30;99.90;;;;;;5071961;28;20188;-71
2021/07/05 03:49:41;;;;;;;13.93;10.37;;;19.10;99.90;;;;;;5072080;28;20243;-71
2021/07/05 03:52:07;;;;;;;12.13;10.87;;;18.90;99.90;;;;;;5059826;28;20656;-71
2021/07/05 03:54:33;;;;;;;11.33;10.23;;;19.50;99.90;;;;;;5052027;28;20566;-71
2021/07/05 03:56:58;;;;;;;11.47;9.60;;;19.90;99.90;;;;;;5051539;28;20181;-71
2021/07/05 03:59:24;;;;;;;12.23;10.50;;;20.10;99.90;;;;;;5052098;28;20186;-71
2021/07/05 04:01:50;;;;;;;14.03;10.97;;;19.70;99.90;;;;;;5051058;28;20200;-71
2021/07/05 04:04:16;;;;;;;15.83;11.00;;;19.40;99.90;;;;;;5051868;28;20170;-70
2021/07/05 04:06:41;;;;;;;15.47;11.73;;;19.20;99.90;;;;;;5051644;28;20223;-71
2021/07/05 04:09:08;;;;;;;14.00;10.83;;;19.00;99.90;;;;;;5051774;28;20173;-72
2021/07/05 04:11:34;;;;;;;13.70;12.13;;;18.90;99.90;;;;;;5050701;28;20222;-72
2021/07/05 04:13:59;;;;;;;13.87;12.30;;;18.80;99.90;;;;;;5033725;28;20177;-72
2021/07/05 04:16:25;;;;;;;16.43;12.53;;;18.70;99.90;;;;;;5051661;28;20166;-72
2021/07/05 04:18:52;;;;;;;15.10;13.50;;;18.60;99.90;;;;;;5051408;28;20178;-72
2021/07/05 04:21:20;;;;;;;19.90;13.30;;;18.70;99.90;;;;;;5050602;28;20234;-72
2021/07/05 04:23:49;;;;;;;17.97;13.77;;;18.70;99.90;;;;;;5051364;28;20178;-71
2021/07/05 04:26:15;;;;;;;17.13;13.17;;;18.70;99.90;;;;;;5033544;28;20239;-72
2021/07/05 04:28:40;;;;;;;16.50;12.70;;;18.80;99.90;;;;;;5051201;28;20178;-72
2021/07/05 04:31:06;;;;;;;16.37;11.93;;;18.90;99.90;;;;;;5050601;28;20214;-72
2021/07/05 04:33:31;;;;;;;14.80;12.47;;;18.90;99.90;;;;;;5051177;28;20180;-71
2021/07/05 04:35:57;;;;;;;16.50;12.73;;;18.90;99.90;;;;;;5051330;28;20208;-72
2021/07/05 04:38:23;;;;;;;16.03;12.50;;;18.90;99.90;;;;;;5051103;28;20170;-71
2021/07/05 04:40:49;;;;;;;20.67;15.27;;;19.00;99.90;;;;;;5050291;28;20271;-71
2021/07/05 04:43:15;;;;;;;14.50;12.97;;;19.20;99.90;;;;;;5050777;28;20255;-71
2021/07/05 04:45:43;;;;;;;20.90;11.00;;;19.30;99.90;;;;;;5051136;28;20256;-71
2021/07/05 04:48:11;;;;;;;14.07;11.17;;;19.40;99.90;;;;;;5050887;28;20173;-71
2021/07/05 04:50:37;;;;;;;12.67;11.37;;;19.50;99.90;;;;;;5050022;28;20213;-71
2021/07/05 04:53:04;;;;;;;18.30;11.13;;;19.50;99.90;;;;;;5050807;28;20192;-71
2021/07/05 04:55:30;;;;;;;13.93;11.93;;;19.60;99.90;;;;;;5050727;28;20213;-72
2021/07/05 04:57:56;;;;;;;12.20;10.83;;;19.70;99.90;;;;;;5051153;28;20228;-72
2021/07/05 05:00:28;;;;;;;13.53;10.97;;;19.70;99.90;;;;;;5050239;28;20567;-72
2021/07/05 05:02:54;;;;;;;15.73;11.03;;;19.70;99.90;;;;;;5051059;28;20266;-72
2021/07/05 05:05:21;;;;;;;15.57;12.07;;;19.70;99.90;;;;;;5051264;28;20613;-72
2021/07/05 05:07:47;;;;;;;14.83;11.73;;;19.80;99.90;;;;;;5050646;28;20226;-72
2021/07/05 05:10:14;;;;;;;11.87;10.77;;;19.90;99.90;;;;;;5050596;28;20285;-72
2021/07/05 05:12:40;;;;;;;13.23;11.20;;;19.90;99.90;;;;;;5050215;28;20173;-72
2021/07/05 05:15:07;;;;;;;15.77;10.87;;;20.00;99.90;;;;;;5050420;28;20166;-72
2021/07/05 05:17:32;;;;;;;15.83;11.70;;;20.10;99.90;;;;;;5050779;28;20631;-72
2021/07/05 05:19:58;;;;;;;15.77;11.50;;;20.10;99.90;;;;;;5050680;28;20353;-72
2021/07/05 05:22:27;;;;;;;14.57;10.73;;;20.20;99.90;;;;;;5051073;28;20227;-72
2021/07/05 05:24:52;;;;;;;13.33;11.47;;;20.20;99.90;;;;;;5050974;28;20176;-72
2021/07/05 05:27:18;;;;;;;15.00;10.57;;;20.20;99.90;;;;;;5050882;28;20547;-72
2021/07/05 05:29:43;;;;;;;12.93;10.90;;;20.20;99.90;;;;;;5050531;28;20707;-72
2021/07/05 05:32:09;;;;;;;15.77;11.00;;;20.30;99.90;;;;;;5050075;28;20174;-72
2021/07/05 05:34:34;;;;;;;11.93;10.67;;;20.30;99.90;;;;;;5050718;28;20225;-72
2021/07/05 05:37:00;;;;;;;13.67;10.63;;;20.40;99.90;;;;;;5050338;28;20182;-72
2021/07/05 05:39:25;;;;;;;16.13;11.43;;;20.50;99.90;;;;;;5050375;28;20181;-72
2021/07/05 05:41:51;;;;;;;14.97;10.63;;;20.60;99.90;;;;;;5049473;28;20738;-72
2021/07/05 05:44:16;;;;;;;13.23;10.50;;;20.70;99.90;;;;;;5050307;28;20178;-72
2021/07/05 05:46:42;;;;;;;13.37;10.70;;;21.00;99.90;;;;;;5050168;28;20186;-72
2021/07/05 05:49:08;;;;;;;12.20;10.33;;;21.20;99.90;;;;;;5050971;28;20223;-72
2021/07/05 05:51:35;;;;;;;12.57;10.63;;;21.30;99.90;;;;;;5049732;28;20208;-72
2021/07/05 05:54:06;;;;;;;12.63;10.40;;;21.50;99.90;;;;;;5050251;28;20543;-72
2021/07/05 05:56:32;;;;;;;12.10;10.80;;;21.60;99.90;;;;;;5050220;28;20167;-72
2021/07/05 05:59:01;;;;;;;11.97;10.60;;;21.50;99.90;;;;;;5050115;28;20181;-72
2021/07/05 06:01:31;;;;;;;13.20;10.23;;;21.50;99.90;;;;;;5049323;28;20256;-72
2021/07/05 06:03:57;;;;;;;11.97;10.77;;;21.70;99.90;;;;;;5049778;28;20180;-72
2021/07/05 06:06:23;;;;;;;10.97;9.57;;;21.90;99.90;;;;;;5049494;28;20180;-72
2021/07/05 06:08:49;;;;;;;10.73;9.63;;;22.00;99.90;;;;;;5048611;28;20236;-72
2021/07/05 06:11:15;;;;;;;11.30;9.63;;;22.00;99.90;;;;;;5048333;28;20206;-72
2021/07/05 06:13:40;;;;;;;10.73;9.60;;;22.20;99.90;;;;;;5049569;28;20547;-72
2021/07/05 06:16:06;;;;;;;10.57;9.43;;;22.30;99.90;;;;;;5049865;28;20280;-72
2021/07/05 06:18:33;;;;;;;10.00;9.07;;;22.50;99.90;;;;;;5049763;28;20171;-72
2021/07/05 06:20:58;;;;;;;11.15;10.05;;;22.60;99.90;;;;;;5051976;28;20233;-72
2021/07/05 06:23:26;;;;;;;11.47;9.60;;;22.50;99.90;;;;;;5053775;28;20643;-72
2021/07/05 06:25:52;;;;;;;10.95;9.75;;;22.50;99.90;;;;;;5053761;28;20186;-71
2021/07/05 06:28:19;;;;;;;9.63;8.65;;;22.40;99.90;;;;;;5053952;28;20180;-72
2021/07/05 06:30:46;;;;;;;11.27;10.17;;;22.60;99.90;;;;;;5052736;28;20219;-73
2021/07/05 06:33:12;;;;;;;9.52;8.35;;;23.00;99.90;;;;;;5053334;28;20167;-73
2021/07/05 06:35:38;;;;;;;11.00;9.48;;;23.10;99.90;;;;;;5053358;28;20172;-72
2021/07/05 06:38:04;;;;;;;9.80;8.90;;;23.30;99.90;;;;;;5053242;28;20172;-73
2021/07/05 06:40:30;;;;;;;9.77;8.85;;;23.40;99.90;;;;;;5052531;28;20215;-73
2021/07/05 06:42:56;;;;;;;9.55;8.65;;;23.10;99.90;;;;;;5053290;28;20168;-73
2021/07/05 06:45:21;;;;;;;9.60;8.73;;;23.20;99.90;;;;;;5053318;28;20180;-72
2021/07/05 06:47:47;;;;;;;9.82;8.60;;;23.30;99.90;;;;;;5053568;28;20316;-72
2021/07/05 06:50:12;;;;;;;9.82;8.85;;;23.30;99.90;;;;;;5053034;28;20306;-73
2021/07/05 06:52:38;;;;;;;8.73;7.90;;;23.50;99.90;;;;;;5052454;28;20175;-73
2021/07/05 06:55:05;;;;;;;9.45;7.63;;;23.60;99.90;;;;;;5052882;28;20179;-73
2021/07/05 06:57:33;;;;;;;8.52;7.82;;;23.40;99.90;;;;;;5065031;28;20181;-73
2021/07/05 07:00:00;;;;;;;9.40;8.60;;;23.50;99.90;;;;;;5072685;28;20222;-73
2021/07/05 07:02:26;;;;;;;9.45;8.55;;;23.50;99.90;;;;;;5072296;28;20363;-73
2021/07/05 07:04:52;;;;;;;9.02;7.88;;;23.50;99.90;;;;;;5072746;28;20255;-73
2021/07/05 07:07:18;;;;;;;8.20;7.40;;;23.50;99.90;;;;;;5072865;28;20172;-73
2021/07/05 07:09:43;;;;;;;8.48;7.78;;;23.50;99.90;;;;;;5072897;28;20203;-73
2021/07/05 07:12:09;;;;;;;9.45;8.65;;;23.40;99.90;;;;;;5072024;28;20218;-73
2021/07/05 07:14:35;;;;;;;9.23;8.02;;;23.30;99.90;;;;;;5067858;28;20224;-73
2021/07/05 07:17:11;;;;;;;8.52;7.72;;;23.50;99.90;;;;;;5062241;28;20184;-73
2021/07/05 07:19:37;;;;;;;12.32;8.32;;;23.90;99.90;;;;;;5051164;28;20181;-73
2021/07/05 07:22:04;;;;;;;9.77;8.93;;;24.20;99.90;;;;;;5087074;22;20219;-71
2021/07/05 07:24:31;;;;;;;9.18;8.20;;;23.90;99.90;;;;;;5070261;28;20179;-72
2021/07/05 07:26:57;;;;;;;9.20;8.30;;;23.70;99.90;;;;;;5071428;28;20188;-72
2021/07/05 07:29:23;;;;;;;9.07;8.27;;;23.70;99.90;;;;;;5073589;28;20179;-72
2021/07/05 07:31:49;;;;;;;10.50;8.90;;;23.60;99.90;;;;;;5072274;28;20640;-73
2021/07/05 07:34:14;;;;;;;8.85;8.05;;;23.50;99.90;;;;;;5073564;28;20171;-73
2021/07/05 07:36:41;;;;;;;10.13;8.60;;;23.70;99.90;;;;;;5073186;28;20171;-73
2021/07/05 07:39:10;;;;;;;11.55;10.45;;;23.60;99.90;;;;;;5073250;28;20536;-72
2021/07/05 07:41:36;;;;;;;11.02;9.48;;;23.90;99.90;;;;;;5072102;28;20735;-73
2021/07/05 07:44:03;;;;;;;10.10;9.10;;;23.90;99.90;;;;;;5072850;28;20214;-72
2021/07/05 07:46:30;;;;;;;9.35;8.45;;;23.80;99.90;;;;;;5072526;28;20223;-73
2021/07/05 07:48:55;;;;;;;9.80;8.80;;;23.70;99.90;;;;;;5072796;28;20181;-73
2021/07/05 07:51:21;;;;;;;9.75;8.57;;;23.70;99.90;;;;;;5072423;28;20209;-72
2021/07/05 07:53:47;;;;;;;9.93;8.85;;;23.80;99.90;;;;;;5075610;28;20173;-73
2021/07/05 07:56:13;;;;;;;10.77;9.68;;;23.70;99.90;;;;;;5081864;28;20229;-72
2021/07/05 07:58:38;;;;;;;9.95;9.00;;;23.80;99.90;;;;;;5072488;28;20170;-73
2021/07/05 08:01:06;;;;;;;9.93;9.00;;;23.80;99.90;;;;;;5071630;28;20667;-72
2021/07/05 08:03:31;;;;;;;9.93;9.02;;;23.90;99.90;;;;;;5072533;28;20169;-72
2021/07/05 08:05:57;;;;;;;10.25;9.32;;;24.20;99.90;;;;;;5071976;28;20178;-73
2021/07/05 08:08:22;;;;;;;10.52;9.10;;;24.60;99.90;;;;;;5072310;28;20340;-73
2021/07/05 08:10:48;;;;;;;10.07;9.07;;;24.60;99.90;;;;;;5071884;28;20211;-73
2021/07/05 08:13:14;;;;;;;10.70;9.65;;;24.70;99.90;;;;;;5072518;28;20537;-72
2021/07/05 08:15:39;;;;;;;10.52;9.52;;;24.40;99.90;;;;;;5073377;28;20172;-73
2021/07/05 08:18:05;;;;;;;10.02;9.10;;;24.40;99.90;;;;;;5072301;28;20167;-73
2021/07/05 08:20:31;;;;;;;10.45;9.48;;;24.50;99.90;;;;;;5071512;28;20187;-72
2021/07/05 08:22:57;;;;;;;10.35;9.25;;;24.40;99.90;;;;;;5072042;28;20207;-72
2021/07/05 08:25:25;;;;;;;9.73;8.73;;;24.50;99.90;;;;;;5072571;28;20183;-73
2021/07/05 08:27:52;;;;;;;11.65;9.05;;;24.40;99.90;;;;;;5073963;28;20180;-73
2021/07/05 08:30:22;;;;;;;9.35;8.02;;;24.40;99.90;;;;;;5073362;28;20251;-72
2021/07/05 08:32:52;;;;;;;10.00;8.98;;;24.50;99.90;;;;;;5072470;28;20163;-72
2021/07/05 08:35:19;;;;;;;8.93;8.13;;;24.60;99.90;;;;;;5071878;28;20196;-73
2021/07/05 08:37:45;;;;;;;9.73;8.82;;;24.50;99.90;;;;;;5072356;28;20175;-73
2021/07/05 08:40:11;;;;;;;9.50;8.60;;;24.20;99.90;;;;;;5071987;28;20183;-72
2021/07/05 08:42:37;;;;;;;10.40;9.40;;;24.30;99.90;;;;;;5070782;28;20210;-72
2021/07/05 08:45:06;;;;;;;9.52;8.73;;;24.10;99.90;;;;;;5071916;28;20176;-73
2021/07/05 08:47:36;;;;;;;10.88;9.65;;;24.40;99.90;;;;;;5071771;28;20203;-73
2021/07/05 08:50:01;;;;;;;10.77;8.82;;;24.40;99.90;;;;;;5071950;28;20200;-73
2021/07/05 08:52:32;;;;;;;10.30;8.95;;;24.40;99.90;;;;;;5071061;28;20203;-72
2021/07/05 08:54:58;;;;;;;10.10;9.13;;;24.50;99.90;;;;;;5071687;28;20172;-73
2021/07/05 08:57:27;;;;;;;11.00;10.00;;;24.60;99.90;;;;;;5071732;28;20175;-73
2021/07/05 08:59:54;;;;;;;10.50;9.38;;;24.70;99.90;;;;;;5071886;28;20210;-73
2021/07/05 09:02:20;;;;;;;10.65;9.75;;;24.60;99.90;;;;;;5071509;28;20195;-72
2021/07/05 09:04:49;;;;;;;10.98;9.98;;;24.60;99.90;;;;;;5071729;28;20179;-72
2021/07/05 09:07:15;;;;;;;13.48;9.98;;;24.80;99.90;;;;;;5071874;28;20562;-72
2021/07/05 09:09:57;;;;;;;14.70;10.10;;;25.00;99.90;;;;;;5070705;28;20187;-73
2021/07/05 09:12:22;;;;;;;12.35;9.50;;;25.20;99.90;;;;;;5071896;28;20273;-73
2021/07/05 09:15:09;;;;;;;10.77;9.68;;;25.30;99.90;;;;;;5071569;28;20251;-73
2021/07/05 09:17:36;;;;;;;9.70;8.80;;;25.50;99.90;;;;;;5071145;28;20185;-73
2021/07/05 09:20:19;;;;;;;11.13;9.98;;;25.70;99.90;;;;;;5071561;28;20652;-73
2021/07/05 09:23:13;;;;;;;10.13;9.18;;;26.10;99.90;;;;;;5070925;28;20562;-73
2021/07/05 09:25:45;;;;;;;10.23;9.32;;;26.00;99.90;;;;;;5070892;28;20183;-73
2021/07/05 09:28:12;;;;;;;9.52;8.73;;;25.70;99.90;;;;;;5071296;28;20177;-73
2021/07/05 09:30:43;;;;;;;12.50;10.02;;;25.70;99.90;;;;;;5070271;28;20684;-73
2021/07/05 09:33:24;;;;;;;11.10;10.07;;;25.60;99.90;;;;;;5071296;28;20551;-73
2021/07/05 09:35:55;;;;;;;10.20;9.13;;;25.90;99.90;;;;;;5071291;28;20415;-73
2021/07/05 09:38:35;;;;;;;9.00;8.10;;;26.00;99.90;;;;;;5071467;28;20169;-73
2021/07/05 09:41:29;;;;;;;10.10;9.20;;;26.20;99.90;;;;;;5082751;28;20552;-72
2021/07/05 09:44:01;;;;;;;10.00;9.13;;;26.10;99.90;;;;;;5096102;28;20180;-72
2021/07/05 09:46:48;;;;;;;9.73;8.82;;;26.00;99.90;;;;;;5096218;28;20164;-72
2021/07/05 09:49:19;;;;;;;9.77;8.82;;;25.90;99.90;;;;;;5096498;28;20153;-73
2021/07/05 09:52:04;;;;;;;9.77;8.82;;;26.10;99.90;;;;;;5095505;28;20284;-73
2021/07/05 09:54:31;;;;;;;9.82;9.02;;;26.20;99.90;;;;;;5096669;28;20149;-72
2021/07/05 09:56:57;;;;;;;9.40;8.55;;;26.40;99.90;;;;;;5099718;28;20214;-72
2021/07/05 09:59:24;;;;;;;9.70;8.73;;;26.40;99.90;;;;;;5092719;28;20538;-73
2021/07/05 10:01:52;;;;;;;9.73;8.93;;;26.30;99.90;;;;;;5074736;28;20577;-74
2021/07/05 10:04:27;;;;;;;8.88;7.97;;;26.20;99.90;;;;;;5075375;28;20177;-72
2021/07/05 10:06:57;;;;;;;10.10;9.20;;;26.30;99.90;;;;;;5075140;28;20191;-72
2021/07/05 10:09:41;;;;;;;10.88;9.77;;;26.10;99.90;;;;;;5058388;28;20569;-74
2021/07/05 10:12:20;;;;;;;9.85;8.95;;;25.90;99.90;;;;;;5074085;28;20513;-72
2021/07/05 10:15:06;;;;;;;10.05;9.18;;;25.60;99.90;;;;;;5074651;28;20270;-73
2021/07/05 10:17:34;;;;;;;10.43;9.43;;;25.30;99.90;;;;;;5074273;28;20173;-73
2021/07/05 10:20:01;;;;;;;10.90;9.82;;;25.10;99.90;;;;;;5074519;28;20733;-73
2021/07/05 10:22:27;;;;;;;10.35;9.45;;;25.10;99.90;;;;;;5073807;28;20215;-73
2021/07/05 10:24:54;;;;;;;11.13;9.90;;;24.90;99.90;;;;;;5057023;28;20176;-74
2021/07/05 10:27:20;;;;;;;10.57;9.18;;;24.90;99.90;;;;;;5074493;28;20232;-74
2021/07/05 10:29:48;;;;;;;13.25;11.95;;;25.10;99.90;;;;;;5077990;28;20180;-73
2021/07/05 10:32:14;;;;;;;11.52;9.90;;;24.90;99.90;;;;;;5078793;28;20218;-73
2021/07/05 10:34:40;;;;;;;10.75;9.70;;;24.80;99.90;;;;;;5074747;28;20179;-73
2021/07/05 10:37:11;;;;;;;10.85;9.88;;;24.60;99.90;;;;;;5074909;28;20533;-72
2021/07/05 10:39:38;;;;;;;13.60;11.30;;;24.40;99.90;;;;;;5074547;28;20202;-72
2021/07/05 10:42:27;;;;;;;17.17;10.00;;;24.20;99.90;;;;;;5073557;28;20196;-74
2021/07/05 10:44:53;;;;;;;11.65;10.02;;;24.00;99.90;;;;;;5074393;28;20199;-73
2021/07/05 10:47:43;;;;;;;11.68;10.68;;;23.80;99.90;;;;;;5073935;28;20166;-73
2021/07/05 10:50:29;;;;;;;12.25;11.00;;;23.50;99.90;;;;;;5068836;28;20208;-72
2021/07/05 10:52:54;;;;;;;13.63;11.02;;;23.50;99.90;;;;;;5073334;28;20589;-73
2021/07/05 10:55:37;;;;;;;14.13;10.87;;;23.20;99.90;;;;;;5073578;28;20176;-72
2021/07/05 10:58:12;;;;;;;10.80;8.60;;;22.70;99.90;;;;;;5073409;28;20164;-73
2021/07/05 11:00:43;;;;;;;12.30;6.57;;;22.30;99.90;;;;;;5072762;28;20197;-74
2021/07/05 11:03:09;;;;;;;10.60;5.63;;;21.90;99.90;;;;;;5073770;28;20652;-74
2021/07/05 11:05:44;;;;;;;10.17;6.20;;;21.60;99.90;;;;;;5072499;28;20173;-72
2021/07/05 11:08:19;;;;;;;4.77;3.80;;;21.30;99.90;;;;;;5073383;28;20183;-72
2021/07/05 11:10:45;;;;;;;7.03;5.10;;;21.10;99.90;;;;;;5072500;28;20700;-72
2021/07/05 11:13:12;;;;;;;10.87;5.47;;;21.10;99.90;;;;;;5073154;28;20195;-73
2021/07/05 11:15:49;;;;;;;12.37;5.77;;;21.30;99.90;;;;;;5074663;28;20171;-73
2021/07/05 11:18:36;;;;;;;6.53;5.77;;;21.50;99.90;;;;;;5073203;28;20176;-73
2021/07/05 11:21:03;;;;;;;8.63;6.00;;;21.80;99.90;;;;;;5072619;28;20215;-72
2021/07/05 11:23:58;;;;;;;9.07;6.60;;;22.10;99.90;;;;;;5073524;28;20176;-72
2021/07/05 11:26:30;;;;;;;8.93;6.97;;;22.50;99.90;;;;;;5073309;28;20181;-72
2021/07/05 11:29:16;;;;;;;11.90;7.53;;;22.70;99.90;;;;;;5073625;28;20551;-72
2021/07/05 11:31:59;;;;;;;7.00;6.23;;;23.00;99.90;;;;;;5064705;28;20781;-73
2021/07/05 11:34:25;;;;;;;10.65;7.82;;;23.50;99.90;;;;;;5073082;28;20487;-73
2021/07/05 11:36:50;;;;;;;12.30;11.13;;;23.90;99.90;;;;;;5072877;28;20218;-73
2021/07/05 11:39:30;;;;;;;12.13;10.98;;;24.10;99.90;;;;;;5073164;28;20200;-73
2021/07/05 11:41:55;;;;;;;11.82;10.63;;;24.00;99.90;;;;;;5072076;28;20194;-73
2021/07/05 11:44:48;;;;;;;13.45;10.80;;;24.10;99.90;;;;;;5073198;28;20209;-74
2021/07/05 11:47:44;;;;;;;13.55;12.23;;;24.10;99.90;;;;;;5072678;28;20175;-74
2021/07/05 11:50:21;;;;;;;17.10;15.32;;;23.80;99.90;;;;;;5072671;28;20762;-73
2021/07/05 11:53:02;;;;;;;17.08;15.32;;;23.70;99.90;;;;;;5072509;28;20172;-73
2021/07/05 11:55:30;;;;;;;16.58;15.00;;;23.50;99.90;;;;;;5072688;28;20394;-73
2021/07/05 11:57:58;;;;;;;20.55;15.15;;;23.10;99.90;;;;;;5072594;28;20238;-73
2021/07/05 12:00:27;;;;;;;15.80;14.23;;;22.60;99.90;;;;;;5072868;28;20530;-73
2021/07/05 12:03:12;;;;;;;16.63;14.60;;;22.50;99.90;;;;;;5073111;28;20172;-73
2021/07/05 12:05:41;;;;;;;15.20;13.70;;;22.30;99.90;;;;;;5072639;28;20178;-73
2021/07/05 12:08:12;;;;;;;16.00;13.68;;;22.60;99.90;;;;;;5072065;28;20746;-73
2021/07/05 12:10:41;;;;;;;15.32;13.93;;;22.90;99.90;;;;;;5071643;28;20195;-73
2021/07/05 12:13:23;;;;;;;16.90;13.75;;;23.30;99.90;;;;;;5072705;28;20182;-73
2021/07/05 12:15:57;;;;;;;15.95;12.90;;;23.70;99.90;;;;;;5072399;28;20178;-74
2021/07/05 12:18:23;;;;;;;13.27;11.90;;;24.00;99.90;;;;;;5071007;28;20167;-73
2021/07/05 12:21:05;;;;;;;14.55;12.65;;;24.00;99.90;;;;;;5071261;28;20211;-73
2021/07/05 12:23:39;;;;;;;12.68;11.52;;;23.80;99.90;;;;;;5072321;28;20174;-73
2021/07/05 12:26:20;;;;;;;12.52;11.27;;;24.00;99.90;;;;;;5072362;28;20172;-73
2021/07/05 12:29:06;;;;;;;12.57;11.27;;;23.90;99.90;;;;;;5071956;28;20574;-73
2021/07/05 12:31:32;;;;;;;12.93;11.48;;;23.50;99.90;;;;;;5071158;28;20233;-73
2021/07/05 12:33:59;;;;;;;12.45;11.35;;;23.30;99.90;;;;;;5071524;28;20198;-73
2021/07/05 12:36:25;;;;;;;12.65;11.40;;;23.00;99.90;;;;;;5072124;28;20183;-72
2021/07/05 12:39:07;;;;;;;13.15;11.50;;;22.90;99.90;;;;;;5071641;28;20161;-72
2021/07/05 12:41:37;;;;;;;12.20;11.10;;;22.70;99.90;;;;;;5070811;28;20745;-72
2021/07/05 12:44:13;;;;;;;12.10;10.77;;;22.80;99.90;;;;;;5072186;28;20202;-72
2021/07/05 12:46:39;;;;;;;12.50;11.20;;;22.90;99.90;;;;;;5056344;28;20179;-72
2021/07/05 12:49:05;;;;;;;11.55;10.30;;;23.10;99.90;;;;;;5072863;28;20255;-73
2021/07/05 12:51:32;;;;;;;11.95;10.27;;;23.30;99.90;;;;;;5071673;28;20214;-73
2021/07/05 12:53:57;;;;;;;13.38;10.20;;;23.30;99.90;;;;;;5072009;28;20236;-73
2021/07/05 12:56:31;;;;;;;10.85;9.75;;;23.70;99.90;;;;;;5071892;28;20170;-72